KOCH

Nacogdoches A L Mangham Jr Regional Airport

Nacogdoches, Texas, USA
METAR KOCH 201256Z AUTO 13006KT 10SM OVC006 09/08 A3010 RMK AO2 RAB15E29 SLP200 P0000 T00890083
Observed Flight Rules
Jan-20 @ 12:56 UTC (17 minutes ago) Instrument Flight Rules
Wind Visibility Clouds
130° at 6 knots 10 miles
  • Overcast at 600' AGL
Temperatures Readings Precipitation
Current 9°C / 48°F
Dewpoint 8°C / 46°F
Humidity 94%
Altimeter 30.1" Hg
Pressure 1020 hPa
Elevation 108
Current Rain 0.005
METAR KOCH 201256Z AUTO 13006KT 10SM OVC006 09/08 A3010 RMK AO2 RAB15E29 SLP200 P0000 T00890083
Observed Flight Rules
Jan-20 @ 12:56 UTC
(17 minutes ago)
IFR
Wind Visibility
130° at 6 knots 10 miles
Clouds
  • Overcast at 600' AGL
Temperature Dewpoint
9°C / 48°F 8°C / 46°F
Humidity Altimeter Pressure
94% 30.1" Hg 1020 hPa
Current Rain
0.005